Time;durP1;ratioP1;P1;durP2;ratioP2;P2;SDS_P1;SDS_P2;PMS_P1;PMS_P2;Temp;Humidity;BMP_temperature;BMP_pressure;BME280_temperature;BME280_humidity;BME280_pressure;Samples;Min_cycle;Max_cycle;Signal;HPM_P1;HPM_P2
2022/01/21 00:02:34;;;;;;;8.32;1.90;;;;;;;1.73;100.00;103284.44;2602161;54;20441;31
2022/01/21 00:07:42;;;;;;;9.48;1.90;;;;;;;1.64;100.00;103284.56;2602777;54;21334;31
2022/01/21 00:10:18;;;;;;;10.13;1.83;;;;;;;1.47;100.00;103288.25;2608661;39;20266;31
2022/01/21 00:18:08;;;;;;;;;;;;;;;1.23;100.00;103284.97;2608029;39;20310;31
2022/01/21 00:31:30;;;;;;;10.35;2.05;;;;;;;0.82;100.00;103299.50;2603312;46;20034;31
2022/01/21 00:44:28;;;;;;;10.13;2.33;;;;;;;0.74;100.00;103322.56;2602646;54;20400;31
2022/01/21 00:49:37;;;;;;;10.68;2.35;;;;;;;0.87;100.00;103321.56;2602897;54;20034;31
2022/01/21 00:52:14;;;;;;;14.50;2.22;;;;;;;0.93;100.00;103325.94;2603003;54;20035;31
2022/01/21 00:54:50;;;;;;;10.38;2.75;;;;;;;0.92;100.00;103316.22;2603399;54;21634;31
2022/01/21 01:00:11;;;;;;;14.65;2.80;;;;;;;0.95;100.00;103315.31;2602601;54;20035;31
2022/01/21 01:02:47;;;;;;;17.50;2.90;;;;;;;1.00;100.00;103306.44;2621471;36;20094;31
2022/01/21 01:05:22;;;;;;;19.65;3.05;;;;;;;1.10;100.00;103299.25;2603349;47;21237;31
2022/01/21 01:19:54;;;;;;;15.32;2.50;;;;;;;1.29;100.00;103318.53;2602533;54;20031;31
2022/01/21 01:21:13;;;;;;;17.42;3.15;;;;;;;1.58;100.00;103322.66;2602502;54;20266;31
2022/01/21 01:31:45;;;;;;;13.47;2.03;;;;;;;1.92;100.00;103309.84;2602421;54;20475;31
2022/01/21 01:34:21;;;;;;;11.23;2.40;;;;;;;2.01;100.00;103305.31;2602977;54;20439;31
2022/01/21 01:50:20;;;;;;;9.55;1.55;;;;;;;1.58;100.00;103298.78;2616203;39;20838;31
2022/01/21 01:55:30;;;;;;;6.22;1.42;;;;;;;1.42;100.00;103306.03;2602496;54;20105;31
2022/01/21 01:58:06;;;;;;;8.85;1.80;;;;;;;1.37;100.00;103300.78;2603022;54;20286;31
2022/01/21 02:08:21;;;;;;;9.90;1.40;;;;;;;0.94;100.00;103301.16;2602174;54;21043;31
2022/01/21 02:10:58;;;;;;;7.45;1.70;;;;;;;0.86;100.00;103297.72;2602599;54;20864;31
2022/01/21 02:13:41;;;;;;;11.07;1.52;;;;;;;0.77;100.00;103297.81;2602738;46;20477;31
2022/01/21 02:16:32;;;;;;;9.60;1.77;;;;;;;0.81;100.00;103308.38;2602876;47;21443;31
2022/01/21 02:26:52;;;;;;;10.00;2.05;;;;;;;0.54;100.00;103309.44;2602718;54;20694;31
2022/01/21 02:32:02;;;;;;;4.90;1.60;;;;;;;0.49;100.00;103300.66;2609767;39;20356;31
2022/01/21 02:34:39;;;;;;;10.77;1.90;;;;;;;0.44;100.00;103299.78;2628392;36;20564;31
2022/01/21 02:37:16;;;;;;;8.60;1.65;;;;;;;0.48;100.00;103305.06;2603192;47;20050;31
2022/01/21 02:45:10;;;;;;;9.65;1.63;;;;;;;0.60;100.00;103297.94;2607866;39;20290;31
2022/01/21 02:50:19;;;;;;;7.03;2.22;;;;;;;0.84;100.00;103304.78;2609856;39;20392;31
2022/01/21 02:53:09;;;;;;;11.77;1.50;;;;;;;0.90;100.00;103302.13;2603317;54;20102;31
2022/01/21 03:00:57;;;;;;;;;;;;;;;1.07;100.00;103304.59;2602369;54;20034;31
2022/01/21 03:03:36;;;;;;;13.65;2.40;;;;;;;1.15;100.00;103309.81;2608221;39;20156;31
2022/01/21 03:11:28;;;;;;;13.02;2.08;;;;;;;1.18;100.00;103318.66;2602742;54;20097;31
2022/01/21 03:16:38;;;;;;;12.80;2.20;;;;;;;1.29;100.00;103301.75;2609164;39;20307;31
2022/01/21 03:19:16;;;;;;;12.85;2.33;;;;;;;1.28;100.00;103311.50;2610979;39;20418;31
2022/01/21 03:24:26;;;;;;;16.60;2.20;;;;;;;1.17;100.00;103326.63;2608521;31;20372;31
2022/01/21 03:29:36;;;;;;;9.50;1.70;;;;;;;1.20;100.00;103329.25;2602299;54;20589;31
2022/01/21 03:32:11;;;;;;;9.18;1.83;;;;;;;1.25;100.00;103324.75;2603063;47;21023;31
2022/01/21 03:39:59;;;;;;;;;;;;;;;1.36;100.00;103328.19;2602091;54;20369;31
2022/01/21 03:42:37;;;;;;;12.52;1.92;;;;;;;1.39;100.00;103325.50;2603053;47;21145;31
2022/01/21 03:50:31;;;;;;;10.45;2.42;;;;;;;1.43;100.00;103314.84;2601740;54;20546;31
2022/01/21 03:53:08;;;;;;;10.30;1.85;;;;;;;1.47;100.00;103311.28;2602136;47;20065;31
2022/01/21 03:55:45;;;;;;;8.95;2.00;;;;;;;1.46;100.00;103314.81;2603168;47;21097;31
2022/01/21 04:03:36;;;;;;;16.70;2.30;;;;;;;1.55;100.00;103323.56;2610428;31;20411;31
2022/01/21 04:08:48;;;;;;;11.30;1.50;;;;;;;1.52;100.00;103318.31;2602039;54;20502;31
2022/01/21 04:11:24;;;;;;;14.00;1.90;;;;;;;1.48;100.00;103321.88;2602329;47;20039;31
2022/01/21 04:14:00;;;;;;;16.60;1.90;;;;;;;1.42;100.00;103323.72;2602740;47;20039;31
2022/01/21 04:24:26;;;;;;;9.38;2.05;;;;;;;1.47;100.00;103316.59;2601642;54;20102;31
2022/01/21 04:29:53;;;;;;;11.65;2.00;;;;;;;1.36;100.00;103335.28;2611485;39;20507;31
2022/01/21 04:48:07;;;;;;;16.00;1.83;;;;;;;1.17;100.00;103313.34;2602576;54;20562;31
2022/01/21 04:53:18;;;;;;;11.27;1.50;;;;;;;1.25;100.00;103306.19;2602670;54;20090;31
2022/01/21 04:58:27;;;;;;;10.52;1.98;;;;;;;1.26;100.00;103294.69;2602804;54;20434;31
2022/01/21 05:03:41;;;;;;;7.00;1.80;;;;;;;1.24;100.00;103312.41;2602819;54;20038;31
2022/01/21 05:08:54;;;;;;;7.32;1.13;;;;;;;1.17;100.00;103316.00;2602718;54;20456;31
2022/01/21 05:11:35;;;;;;;9.75;1.67;;;;;;;1.16;100.00;103314.25;2603984;47;21216;31
2022/01/21 05:22:03;;;;;;;5.60;1.40;;;;;;;1.07;100.00;103319.63;2602573;54;20038;31
2022/01/21 05:24:39;;;;;;;11.07;1.67;;;;;;;1.03;100.00;103311.72;2621322;36;20030;31
2022/01/21 05:27:17;;;;;;;9.98;1.70;;;;;;;0.91;100.00;103310.94;2603228;46;20474;31
2022/01/21 05:29:52;;;;;;;10.70;1.30;;;;;;;0.81;100.00;103316.31;2616001;39;20842;31
2022/01/21 05:37:40;;;;;;;5.13;1.27;;;;;;;0.60;100.00;103317.34;2617859;31;20551;31
2022/01/21 05:40:18;;;;;;;9.50;1.57;;;;;;;0.64;100.00;103332.34;2603489;54;20038;31
2022/01/21 05:48:07;;;;;;;15.60;2.93;;;;;;;1.19;100.00;103335.44;2602389;54;20038;31
2022/01/21 05:50:42;;;;;;;8.50;1.30;;;;;;;1.43;100.00;103329.03;2605166;46;21191;31
2022/01/21 05:58:35;;;;;;;9.65;1.85;;;;;;;1.61;100.00;103333.25;2602426;54;20038;31
2022/01/21 06:01:13;;;;;;;10.38;1.80;;;;;;;1.62;100.00;103334.13;2603478;46;20030;31
2022/01/21 06:06:32;;;;;;;11.25;1.80;;;;;;;1.70;100.00;103322.50;2602932;54;20271;31
2022/01/21 06:09:09;;;;;;;13.73;1.85;;;;;;;1.66;100.00;103322.56;2603104;54;20043;31
2022/01/21 06:14:25;;;;;;;10.65;1.75;;;;;;;1.67;100.00;103322.56;2602540;54;20093;31
2022/01/21 06:17:06;;;;;;;10.63;1.90;;;;;;;1.55;100.00;103333.31;2602768;46;20458;31
2022/01/21 06:19:43;;;;;;;8.27;2.00;;;;;;;1.58;100.00;103335.94;2603179;54;20034;31
2022/01/21 06:27:34;;;;;;;12.52;1.98;;;;;;;1.75;100.00;103346.34;2601866;54;20034;31
2022/01/21 06:32:47;;;;;;;15.50;2.08;;;;;;;1.74;100.00;103339.31;2602396;54;20503;31
2022/01/21 06:37:58;;;;;;;9.03;1.77;;;;;;;1.77;100.00;103335.72;2602215;54;19946;31
2022/01/21 06:40:34;;;;;;;11.50;2.20;;;;;;;1.73;100.00;103343.72;2616596;39;20835;31
2022/01/21 06:45:51;;;;;;;12.02;2.03;;;;;;;1.72;100.00;103367.63;2601732;54;20034;31
2022/01/21 06:48:31;;;;;;;12.33;1.90;;;;;;;1.73;100.00;103369.41;2602974;54;21141;31
2022/01/21 06:56:26;;;;;;;13.13;3.35;;;;;;;1.83;100.00;103386.13;2615320;39;20931;31
2022/01/21 06:59:01;;;;;;;12.05;1.90;;;;;;;1.91;100.00;103387.78;2602694;46;21786;31
2022/01/21 07:06:56;;;;;;;11.35;1.65;;;;;;;2.00;100.00;103380.59;2609905;39;20377;31
2022/01/21 07:14:38;;;;;;;5.65;1.80;;;;;;;2.00;100.00;103394.75;2602127;54;21355;31
2022/01/21 07:17:14;;;;;;;7.93;1.73;;;;;;;1.97;100.00;103385.94;2602940;47;21110;31
2022/01/21 07:25:06;;;;;;;13.70;2.00;;;;;;;1.91;100.00;103358.56;2607343;39;20400;31
2022/01/21 07:27:42;;;;;;;12.38;2.25;;;;;;;1.78;100.00;103364.03;2602379;54;21213;31
2022/01/21 07:30:19;;;;;;;10.68;2.00;;;;;;;1.62;100.00;103355.34;2611498;39;20252;31
2022/01/21 07:38:04;;;;;;;5.05;1.60;;;;;;;1.59;100.00;103358.94;2602216;54;20038;31
2022/01/21 07:43:16;;;;;;;11.05;1.90;;;;;;;1.49;100.00;103360.78;2602196;54;21288;31
2022/01/21 07:45:52;;;;;;;6.15;1.60;;;;;;;1.64;100.00;103359.75;2602338;47;21105;31
2022/01/21 07:48:29;;;;;;;4.68;1.50;;;;;;;1.62;100.00;103358.91;2610656;39;20382;31
2022/01/21 07:51:05;;;;;;;8.75;2.10;;;;;;;1.60;100.00;103360.69;2611523;39;20324;31
2022/01/21 07:58:56;;;;;;;10.50;2.67;;;;;;;1.72;100.00;103362.31;2607236;39;20977;31
2022/01/21 08:04:05;;;;;;;12.52;2.67;;;;;;;1.71;100.00;103369.41;2610826;31;20412;31
2022/01/21 08:11:49;;;;;;;11.97;2.87;;;;;;;1.69;100.00;103379.19;2602158;54;20377;31
2022/01/21 08:17:02;;;;;;;11.85;2.58;;;;;;;1.61;100.00;103386.34;2607603;39;20288;31
2022/01/21 08:22:11;;;;;;;11.15;2.58;;;;;;;1.67;100.00;103372.13;2611979;39;20346;31
2022/01/21 08:27:20;;;;;;;16.80;3.33;;;;;;;1.62;100.00;103365.97;2602857;54;20980;31
2022/01/21 08:32:31;;;;;;;9.07;3.45;;;;;;;1.74;100.00;103366.72;2603328;54;21177;31
2022/01/21 08:35:09;;;;;;;9.10;2.57;;;;;;;1.93;100.00;103375.34;2603072;46;20050;31
2022/01/21 08:37:45;;;;;;;14.45;3.20;;;;;;;2.07;100.00;103369.00;2604610;46;21302;31
2022/01/21 08:42:54;;;;;;;9.35;2.75;;;;;;;2.27;100.00;103348.38;2602847;54;20899;31
2022/01/21 08:45:32;;;;;;;10.38;2.58;;;;;;;2.35;100.00;103348.25;2603500;54;20042;31
2022/01/21 08:56:25;;;;;;;13.05;2.55;;;;;;;2.65;100.00;103358.47;2603586;47;20117;31
2022/01/21 09:04:14;;;;;;;17.05;2.40;;;;;;;2.51;100.00;103366.66;2602405;54;20035;31
2022/01/21 09:12:04;;;;;;;9.80;2.25;;;;;;;2.54;100.00;103358.63;2602845;54;20093;31
2022/01/21 09:14:39;;;;;;;17.10;3.50;;;;;;;2.53;100.00;103360.41;2621757;36;21516;31
2022/01/21 09:22:33;;;;;;;14.30;2.85;;;;;;;2.74;100.00;103361.88;2602508;54;20270;31
2022/01/21 09:25:12;;;;;;;14.38;2.25;;;;;;;2.84;100.00;103367.91;2602977;46;20042;31
2022/01/21 09:38:15;;;;;;;12.32;2.75;;;;;;;3.46;100.00;103378.41;2607472;39;20356;31
2022/01/21 09:46:10;;;;;;;14.68;3.33;;;;;;;3.74;100.00;103385.91;2602135;54;21283;31
2022/01/21 09:49:05;;;;;;;14.10;2.58;;;;;;;3.88;100.00;103401.59;2611246;39;20258;31
2022/01/21 09:54:17;;;;;;;13.50;3.20;;;;;;;4.08;100.00;103387.00;2602493;54;20421;31
2022/01/21 09:56:55;;;;;;;7.97;2.28;;;;;;;4.18;100.00;103392.13;2602788;54;20270;31
2022/01/21 09:59:40;;;;;;;15.55;2.83;;;;;;;4.28;100.00;103398.09;2602204;47;20038;31
2022/01/21 10:05:05;;;;;;;19.52;2.88;;;;;;;4.47;100.00;103395.94;2603254;54;20875;31
2022/01/21 10:10:32;;;;;;;9.73;2.45;;;;;;;4.64;100.00;103402.66;2602649;54;20038;31
2022/01/21 10:16:00;;;;;;;14.73;2.55;;;;;;;4.81;100.00;103400.50;2603229;54;21396;31
2022/01/21 10:21:16;;;;;;;21.67;2.97;;;;;;;4.99;100.00;103384.94;2601964;54;21713;31
2022/01/21 10:29:01;;;;;;;11.27;2.10;;;;;;;5.00;100.00;103405.41;2602306;54;20303;31
2022/01/21 10:36:54;;;;;;;13.33;2.30;;;;;;;5.45;100.00;103381.13;2603920;54;19946;31
2022/01/21 10:44:50;;;;;;;16.87;2.93;;;;;;;5.43;100.00;103377.59;2601827;54;20041;31
2022/01/21 10:55:29;;;;;;;8.05;2.30;;;;;;;5.56;100.00;103372.81;2602378;54;20246;31
2022/01/21 10:58:09;;;;;;;10.85;2.47;;;;;;;5.56;100.00;103380.84;2602704;47;20049;31
2022/01/21 11:06:10;;;;;;;12.02;2.40;;;;;;;5.68;100.00;103384.97;2601650;54;20038;31
2022/01/21 11:16:37;;;;;;;16.08;2.83;;;;;;;5.97;100.00;103382.38;2601999;54;20462;31
2022/01/21 11:21:48;;;;;;;19.50;2.92;;;;;;;6.01;100.00;103372.50;2601832;54;21199;31
2022/01/21 11:24:24;;;;;;;15.40;3.15;;;;;;;6.01;100.00;103375.16;2605263;39;21478;31
2022/01/21 11:27:14;;;;;;;15.05;2.50;;;;;;;5.89;100.00;103379.03;2611316;39;20808;31
2022/01/21 11:34:57;;;;;;;18.15;2.90;;;;;;;5.83;100.00;103368.53;2601536;54;20105;31
2022/01/21 11:40:07;;;;;;;20.50;3.15;;;;;;;6.02;100.00;103360.00;2602190;54;20030;31
2022/01/21 11:42:45;;;;;;;16.35;3.10;;;;;;;6.12;100.00;103365.03;2621086;36;20394;31
2022/01/21 11:50:33;;;;;;;;;;;;;;;6.29;100.00;103361.84;2603460;54;20294;31
2022/01/21 11:53:14;;;;;;;17.10;2.70;;;;;;;6.34;100.00;103356.34;2608629;39;20137;31
2022/01/21 11:55:50;;;;;;;14.10;2.70;;;;;;;6.27;100.00;103354.78;2602547;47;20304;31
2022/01/21 12:01:05;;;;;;;18.98;2.78;;;;;;;6.32;100.00;103343.03;2601587;54;20480;31
2022/01/21 12:03:54;;;;;;;16.15;2.85;;;;;;;6.38;100.00;103341.09;2602504;54;21142;31
2022/01/21 12:11:51;;;;;;;17.05;2.72;;;;;;;6.41;100.00;103336.53;2601447;54;21283;31
2022/01/21 12:14:29;;;;;;;15.95;2.45;;;;;;;6.38;100.00;103341.09;2601922;47;20908;31
2022/01/21 12:17:18;;;;;;;15.25;2.45;;;;;;;6.51;100.00;103331.78;2610819;39;20274;31
2022/01/21 12:22:26;;;;;;;12.05;2.70;;;;;;;6.43;100.00;103334.69;2615587;39;20864;31
2022/01/21 12:25:07;;;;;;;16.88;2.95;;;;;;;6.34;100.00;103331.41;2601879;54;20502;31
2022/01/21 12:41:23;;;;;;;14.20;2.85;;;;;;;6.28;100.00;103319.97;2620788;36;20034;31
2022/01/21 12:52:11;;;;;;;15.95;3.60;;;;;;;6.45;100.00;103314.09;2602000;54;21411;31
2022/01/21 12:57:27;;;;;;;16.08;3.47;;;;;;;6.45;100.00;103310.56;2601495;54;20441;31
2022/01/21 13:00:08;;;;;;;10.50;2.95;;;;;;;6.39;100.00;103316.09;2601964;47;20367;31
2022/01/21 13:05:18;;;;;;;21.55;3.75;;;;;;;6.49;100.00;103323.78;2601944;54;21217;31
2022/01/21 13:08:06;;;;;;;10.15;2.70;;;;;;;6.54;100.00;103320.97;2602543;47;21324;31
2022/01/21 13:21:03;;;;;;;17.77;2.80;;;;;;;6.47;100.00;103314.06;2602390;54;20126;31
2022/01/21 13:23:45;;;;;;;13.25;2.55;;;;;;;6.43;100.00;103307.03;2602469;47;20038;31
2022/01/21 13:26:21;;;;;;;15.07;2.35;;;;;;;6.31;100.00;103308.31;2602755;54;21599;31
2022/01/21 13:31:30;;;;;;;17.35;3.22;;;;;;;6.27;100.00;103299.53;2602391;54;21250;31
2022/01/21 13:41:53;;;;;;;15.27;2.53;;;;;;;6.24;100.00;103296.94;2605542;39;20352;31
2022/01/21 13:44:34;;;;;;;13.55;2.35;;;;;;;6.20;100.00;103299.72;2607286;39;20540;31
2022/01/21 13:47:25;;;;;;;12.27;2.55;;;;;;;6.22;100.00;103290.75;2602312;46;20045;31
2022/01/21 13:57:49;;;;;;;13.57;2.30;;;;;;;6.20;100.00;103284.59;2602151;54;20078;31
2022/01/21 14:00:32;;;;;;;9.63;2.13;;;;;;;6.20;100.00;103284.59;2602860;54;20455;31
2022/01/21 14:05:52;;;;;;;13.10;2.63;;;;;;;6.11;100.00;103291.09;2601757;54;20034;31
2022/01/21 14:08:29;;;;;;;12.32;2.90;;;;;;;6.11;100.00;103285.75;2603243;47;21386;31
2022/01/21 14:16:13;;;;;;;16.60;3.08;;;;;;;6.19;100.00;103277.47;2601632;54;20425;31
2022/01/21 14:18:50;;;;;;;;;;;;;;;6.17;100.00;103287.34;2602722;54;21107;31
2022/01/21 14:21:28;;;;;;;13.07;3.65;;;;;;;6.08;100.00;103280.50;2603151;54;19954;31
2022/01/21 14:29:12;;;;;;;14.15;2.85;;;;;;;6.10;100.00;103275.09;2602305;54;20046;31
2022/01/21 14:31:52;;;;;;;9.90;3.10;;;;;;;6.03;100.00;103269.03;2607972;39;20342;31
2022/01/21 14:39:41;;;;;;;;;;;;;;;5.96;100.00;103263.00;2606031;39;21574;31
2022/01/21 14:42:22;;;;;;;11.23;2.60;;;;;;;5.96;100.00;103254.97;2603132;54;20013;31
2022/01/21 14:47:41;;;;;;;14.63;2.45;;;;;;;6.01;100.00;103262.00;2601722;54;20046;31
2022/01/21 14:52:51;;;;;;;12.30;2.15;;;;;;;5.92;100.00;103269.34;2602272;54;20034;31
2022/01/21 14:55:32;;;;;;;11.05;2.50;;;;;;;5.93;100.00;103265.78;2602569;54;20848;31
2022/01/21 14:58:12;;;;;;;14.55;2.85;;;;;;;5.86;100.00;103252.59;2603012;54;21080;31
2022/01/21 15:06:09;;;;;;;12.15;2.05;;;;;;;5.82;100.00;103257.19;2601915;54;20038;31
2022/01/21 15:08:53;;;;;;;12.90;2.35;;;;;;;5.84;100.00;103263.34;2603139;54;20038;31
2022/01/21 15:19:13;;;;;;;15.50;4.75;;;;;;;5.82;100.00;103256.31;2601894;54;20038;31
2022/01/21 15:21:51;;;;;;;16.25;3.10;;;;;;;5.79;100.00;103259.97;2602494;54;20748;31
2022/01/21 15:24:30;;;;;;;15.90;3.13;;;;;;;5.83;100.00;103261.63;2607821;39;20338;31
2022/01/21 15:29:39;;;;;;;18.13;3.20;;;;;;;5.75;100.00;103255.63;2602391;54;21384;31
2022/01/21 15:34:49;;;;;;;12.63;3.30;;;;;;;5.71;100.00;103257.53;2602272;54;20042;31
2022/01/21 15:37:25;;;;;;;14.35;3.80;;;;;;;5.67;100.00;103246.94;2602020;54;20422;31
2022/01/21 15:40:06;;;;;;;19.35;4.30;;;;;;;5.70;100.00;103249.56;2609108;31;20038;31
2022/01/21 15:45:16;;;;;;;16.88;4.05;;;;;;;5.63;100.00;103240.81;2601499;54;20481;31
2022/01/21 15:52:58;;;;;;;15.93;3.63;;;;;;;5.58;100.00;103248.09;2602116;54;20537;31
2022/01/21 16:08:24;;;;;;;17.33;4.38;;;;;;;5.64;100.00;103236.34;2602051;54;21413;31
2022/01/21 16:11:01;;;;;;;18.20;4.15;;;;;;;5.61;100.00;103240.00;2601914;47;20394;31
2022/01/21 16:13:37;;;;;;;11.73;3.88;;;;;;;5.61;100.00;103243.53;2602504;54;20050;31
2022/01/21 16:24:06;;;;;;;22.40;4.60;;;;;;;5.65;100.00;103232.75;2601215;54;20082;31
2022/01/21 16:29:16;;;;;;;15.80;3.90;;;;;;;5.60;100.00;103239.09;2600952;54;20429;31
2022/01/21 16:31:53;;;;;;;22.30;3.40;;;;;;;5.56;100.00;103226.75;2602644;54;20054;31
2022/01/21 16:37:12;;;;;;;15.90;3.92;;;;;;;5.56;100.00;103233.91;2601524;54;20031;31
2022/01/21 16:48:17;;;;;;;15.00;4.70;;;;;;;5.57;100.00;103235.66;2602702;39;20293;31
2022/01/21 16:56:08;;;;;;;17.07;3.93;;;;;;;5.55;100.00;103233.03;2602225;54;20042;31
2022/01/21 16:58:45;;;;;;;19.25;3.95;;;;;;;5.57;100.00;103233.84;2602796;47;20367;31
2022/01/21 17:01:22;;;;;;;21.70;5.97;;;;;;;5.53;100.00;103234.00;2603452;54;20049;31
2022/01/21 17:09:21;;;;;;;17.15;3.60;;;;;;;5.57;100.00;103243.69;2615862;39;21208;31
2022/01/21 17:17:04;;;;;;;23.30;4.10;;;;;;;5.61;100.00;103227.50;2602167;54;20324;31
2022/01/21 17:22:14;;;;;;;18.60;3.80;;;;;;;5.58;100.00;103227.59;2601913;54;20065;31
2022/01/21 17:30:00;;;;;;;13.10;3.67;;;;;;;5.56;100.00;103234.78;2602887;54;20262;31
2022/01/21 17:35:14;;;;;;;;;;;;;;;5.59;100.00;103240.06;2603005;54;21469;31
2022/01/21 17:37:51;;;;;;;20.70;3.85;;;;;;;5.57;100.00;103239.19;2603459;54;19999;31
2022/01/21 17:45:42;;;;;;;14.43;3.23;;;;;;;5.57;100.00;103249.03;2608058;39;20392;31
2022/01/21 17:50:51;;;;;;;11.70;3.60;;;;;;;5.59;100.00;103239.16;2602599;54;21226;31
2022/01/21 17:56:01;;;;;;;16.33;3.65;;;;;;;5.58;100.00;103240.97;2602789;54;20068;31
2022/01/21 17:58:37;;;;;;;15.77;5.60;;;;;;;5.58;100.00;103240.06;2621407;36;20084;31
2022/01/21 18:03:48;;;;;;;18.23;4.03;;;;;;;5.56;100.00;103233.91;2602680;54;20393;31
2022/01/21 18:11:32;;;;;;;19.50;5.80;;;;;;;5.59;100.00;103224.03;2602858;54;20527;31
2022/01/21 18:16:43;;;;;;;12.67;4.20;;;;;;;5.46;100.00;103214.59;2602499;54;20089;31
2022/01/21 18:24:32;;;;;;;15.70;4.95;;;;;;;5.47;100.00;103203.00;2617825;31;20278;31
2022/01/21 18:27:08;;;;;;;17.10;5.40;;;;;;;5.51;100.00;103209.16;2611863;39;20255;31
2022/01/21 18:34:51;;;;;;;22.98;7.15;;;;;;;5.43;100.00;103217.34;2601804;54;20473;31
2022/01/21 18:37:28;;;;;;;23.80;6.75;;;;;;;5.40;100.00;103217.44;2602114;54;20041;31
2022/01/21 18:50:24;;;;;;;;;;;;;;;5.46;100.00;103219.94;2601843;54;20446;31
2022/01/21 18:53:03;;;;;;;20.20;5.05;;;;;;;5.42;100.00;103216.50;2603173;39;20334;31
2022/01/21 18:58:19;;;;;;;;;;;;;;;5.42;100.00;103215.63;2603929;54;19958;31
2022/01/21 19:00:56;;;;;;;18.42;6.55;;;;;;;5.39;100.00;103215.72;2604773;54;19946;31
2022/01/21 19:08:57;;;;;;;21.90;4.50;;;;;;;5.37;100.00;103222.88;2602223;54;20023;31
2022/01/21 19:11:43;;;;;;;21.75;5.28;;;;;;;5.36;100.00;103222.00;2602633;47;20496;31
2022/01/21 19:17:11;;;;;;;21.55;5.15;;;;;;;5.34;100.00;103220.28;2602674;54;20609;31
2022/01/21 19:22:29;;;;;;;;;;;;;;;5.44;100.00;103229.81;2602016;54;20986;31
2022/01/21 19:25:11;;;;;;;12.30;3.73;;;;;;;5.41;100.00;103227.22;2601669;47;20030;31
2022/01/21 19:35:37;;;;;;;15.32;4.30;;;;;;;5.44;100.00;103236.00;2602103;54;20034;31
2022/01/21 19:38:12;;;;;;;26.65;4.43;;;;;;;5.41;100.00;103246.78;2603215;47;20991;31
2022/01/21 19:51:17;;;;;;;19.52;4.47;;;;;;;5.39;100.00;103243.28;2601877;54;20657;31
2022/01/21 19:53:56;;;;;;;18.13;4.20;;;;;;;5.33;100.00;103251.47;2611824;39;20333;31
2022/01/21 20:02:00;;;;;;;27.15;7.97;;;;;;;5.36;100.00;103263.84;2602342;54;20061;31
2022/01/21 20:13:05;;;;;;;19.73;5.97;;;;;;;5.37;100.00;103266.47;2603188;54;20034;31
2022/01/21 20:23:40;;;;;;;19.43;4.30;;;;;;;5.32;100.00;103263.06;2610693;39;20270;31
2022/01/21 20:31:47;;;;;;;16.85;4.70;;;;;;;5.37;100.00;103257.59;2602120;54;20045;31
2022/01/21 20:34:26;;;;;;;21.00;4.85;;;;;;;5.34;100.00;103260.34;2602168;54;20105;31
2022/01/21 20:37:04;;;;;;;21.90;4.38;;;;;;;5.36;100.00;103259.41;2602087;47;20386;31
2022/01/21 20:39:53;;;;;;;19.73;5.57;;;;;;;5.34;100.00;103255.88;2602745;47;20094;31
2022/01/21 20:47:53;;;;;;;23.02;6.70;;;;;;;5.38;100.00;103240.66;2602395;54;21255;31
2022/01/21 20:53:22;;;;;;;32.20;11.80;;;;;;;5.36;100.00;103237.13;2603426;54;20392;31
2022/01/21 21:09:09;;;;;;;17.50;6.63;;;;;;;5.37;100.00;103228.22;2602260;54;20097;31
2022/01/21 21:11:44;;;;;;;14.80;4.47;;;;;;;5.36;100.00;103234.47;2602727;46;20289;31
2022/01/21 21:24:41;;;;;;;;;;;;;;;5.38;100.00;103229.97;2601430;54;20042;31
2022/01/21 21:27:31;;;;;;;19.75;4.55;;;;;;;5.37;100.00;103238.91;2602339;47;19946;31
2022/01/21 22:13:27;;;;;;;18.75;3.80;;;;;;;5.43;100.00;103212.00;2602366;54;20518;31
2022/01/21 22:27:43;;;;;;;15.23;3.67;;;;;;;5.46;100.00;103222.59;2603126;47;20049;31
2022/01/21 22:48:44;;;;;;;20.25;4.25;;;;;;;5.41;100.00;103237.91;2602604;54;20038;31
2022/01/21 23:01:37;;;;;;;11.32;2.65;;;;;;;5.44;100.00;103235.13;2602060;54;20039;31
2022/01/21 23:04:16;;;;;;;16.63;3.20;;;;;;;5.44;100.00;103236.00;2602938;47;20041;31
2022/01/21 23:15:06;;;;;;;16.15;3.38;;;;;;;5.47;100.00;103259.09;2601919;54;21375;31
2022/01/21 23:17:53;;;;;;;17.65;4.20;;;;;;;5.47;100.00;103261.75;2603034;47;20437;31
2022/01/21 23:23:19;;;;;;;15.05;3.20;;;;;;;5.49;100.00;103254.59;2602571;54;21276;31
2022/01/21 23:33:48;;;;;;;16.70;3.00;;;;;;;5.56;100.00;103248.13;2615800;39;20898;31
2022/01/21 23:36:29;;;;;;;16.50;3.35;;;;;;;5.58;100.00;103246.31;2602956;46;20072;31
2022/01/21 23:41:47;;;;;;;9.57;2.47;;;;;;;5.54;100.00;103247.31;2610914;39;20368;31
2022/01/21 23:44:23;;;;;;;14.00;2.88;;;;;;;5.50;100.00;103242.97;2602851;47;21291;31
2022/01/21 23:52:19;;;;;;;13.55;2.58;;;;;;;5.55;100.00;103243.72;2603712;54;20451;31
2022/01/21 23:55:04;;;;;;;10.85;2.65;;;;;;;5.59;100.00;103250.75;2602497;54;20411;31
